sensor_id;sensor_type;location;lat;lon;timestamp;temperature;humidity
52669;DHT22;59898;52.786;6.892;2023-02-03T00:00:17;8.30;99.90
52669;DHT22;59898;52.786;6.892;2023-02-03T00:03:38;8.30;99.90
52669;DHT22;59898;52.786;6.892;2023-02-03T00:06:59;8.40;99.90
52669;DHT22;59898;52.786;6.892;2023-02-03T00:10:20;8.40;99.90
52669;DHT22;59898;52.786;6.892;2023-02-03T00:13:41;8.40;99.90
52669;DHT22;59898;52.786;6.892;2023-02-03T00:17:01;8.40;99.90
52669;DHT22;59898;52.786;6.892;2023-02-03T00:20:22;8.40;99.90
52669;DHT22;59898;52.786;6.892;2023-02-03T00:23:43;8.40;99.90
52669;DHT22;59898;52.786;6.892;2023-02-03T00:27:04;8.50;99.90
52669;DHT22;59898;52.786;6.892;2023-02-03T00:30:26;8.50;99.90
52669;DHT22;59898;52.786;6.892;2023-02-03T00:33:47;8.50;99.90
52669;DHT22;59898;52.786;6.892;2023-02-03T00:37:08;8.50;99.90
52669;DHT22;59898;52.786;6.892;2023-02-03T00:40:28;8.40;99.90
52669;DHT22;59898;52.786;6.892;2023-02-03T00:43:49;8.40;99.90
52669;DHT22;59898;52.786;6.892;2023-02-03T00:47:10;8.50;99.90
52669;DHT22;59898;52.786;6.892;2023-02-03T00:50:30;8.50;99.90
52669;DHT22;59898;52.786;6.892;2023-02-03T00:53:51;8.50;99.90
52669;DHT22;59898;52.786;6.892;2023-02-03T00:57:12;8.40;99.90
52669;DHT22;59898;52.786;6.892;2023-02-03T01:00:32;8.40;99.90
52669;DHT22;59898;52.786;6.892;2023-02-03T01:03:54;8.50;99.90
52669;DHT22;59898;52.786;6.892;2023-02-03T01:07:15;8.50;99.90
52669;DHT22;59898;52.786;6.892;2023-02-03T01:10:37;8.50;99.90
52669;DHT22;59898;52.786;6.892;2023-02-03T01:13:58;8.50;99.90
52669;DHT22;59898;52.786;6.892;2023-02-03T01:17:21;8.40;99.90
52669;DHT22;59898;52.786;6.892;2023-02-03T01:20:42;8.40;99.90
52669;DHT22;59898;52.786;6.892;2023-02-03T01:24:03;8.40;99.90
52669;DHT22;59898;52.786;6.892;2023-02-03T01:27:24;8.50;99.90
52669;DHT22;59898;52.786;6.892;2023-02-03T01:30:45;8.40;99.90
52669;DHT22;59898;52.786;6.892;2023-02-03T01:34:09;8.40;99.90
52669;DHT22;59898;52.786;6.892;2023-02-03T01:37:30;8.40;99.90
52669;DHT22;59898;52.786;6.892;2023-02-03T01:40:51;8.40;99.90
52669;DHT22;59898;52.786;6.892;2023-02-03T01:47:57;8.50;99.90
52669;DHT22;59898;52.786;6.892;2023-02-03T01:51:20;8.40;99.90
52669;DHT22;59898;52.786;6.892;2023-02-03T01:54:43;8.40;99.90
52669;DHT22;59898;52.786;6.892;2023-02-03T01:58:08;8.40;99.90
52669;DHT22;59898;52.786;6.892;2023-02-03T02:01:31;8.40;99.90
52669;DHT22;59898;52.786;6.892;2023-02-03T02:05:10;8.40;99.90
52669;DHT22;59898;52.786;6.892;2023-02-03T02:08:35;8.40;99.90
52669;DHT22;59898;52.786;6.892;2023-02-03T02:11:56;8.40;99.90
52669;DHT22;59898;52.786;6.892;2023-02-03T02:15:18;8.40;99.90
52669;DHT22;59898;52.786;6.892;2023-02-03T02:37:13;8.40;99.90
52669;DHT22;59898;52.786;6.892;2023-02-03T02:40:36;8.40;99.90
52669;DHT22;59898;52.786;6.892;2023-02-03T02:44:29;8.40;99.90
52669;DHT22;59898;52.786;6.892;2023-02-03T02:47:54;8.40;99.90
52669;DHT22;59898;52.786;6.892;2023-02-03T02:51:17;8.40;99.90
52669;DHT22;59898;52.786;6.892;2023-02-03T02:54:40;8.50;99.90
52669;DHT22;59898;52.786;6.892;2023-02-03T02:58:05;8.50;99.90
52669;DHT22;59898;52.786;6.892;2023-02-03T03:01:27;8.50;99.90
52669;DHT22;59898;52.786;6.892;2023-02-03T03:04:48;8.50;99.90
52669;DHT22;59898;52.786;6.892;2023-02-03T03:08:12;8.50;99.90
52669;DHT22;59898;52.786;6.892;2023-02-03T03:11:57;8.50;99.90
52669;DHT22;59898;52.786;6.892;2023-02-03T03:15:23;8.50;99.90
52669;DHT22;59898;52.786;6.892;2023-02-03T03:18:48;8.50;99.90
52669;DHT22;59898;52.786;6.892;2023-02-03T03:22:12;8.50;99.90
52669;DHT22;59898;52.786;6.892;2023-02-03T03:25:40;8.50;99.90
52669;DHT22;59898;52.786;6.892;2023-02-03T03:29:11;8.50;99.90
52669;DHT22;59898;52.786;6.892;2023-02-03T03:32:33;8.50;99.90
52669;DHT22;59898;52.786;6.892;2023-02-03T03:40:08;8.50;99.90
52669;DHT22;59898;52.786;6.892;2023-02-03T03:46:42;8.50;99.90
52669;DHT22;59898;52.786;6.892;2023-02-03T03:50:08;8.50;99.90
52669;DHT22;59898;52.786;6.892;2023-02-03T03:53:31;8.50;99.90
52669;DHT22;59898;52.786;6.892;2023-02-03T04:00:26;8.50;99.90
52669;DHT22;59898;52.786;6.892;2023-02-03T04:04:09;8.60;99.90
52669;DHT22;59898;52.786;6.892;2023-02-03T04:07:44;8.60;99.90
52669;DHT22;59898;52.786;6.892;2023-02-03T04:11:05;8.60;99.90
52669;DHT22;59898;52.786;6.892;2023-02-03T04:14:30;8.60;99.90
52669;DHT22;59898;52.786;6.892;2023-02-03T04:17:52;8.50;99.90
52669;DHT22;59898;52.786;6.892;2023-02-03T04:21:14;8.60;99.90
52669;DHT22;59898;52.786;6.892;2023-02-03T04:24:34;8.50;99.90
52669;DHT22;59898;52.786;6.892;2023-02-03T04:27:55;8.60;99.90
52669;DHT22;59898;52.786;6.892;2023-02-03T04:31:16;8.50;99.90
52669;DHT22;59898;52.786;6.892;2023-02-03T04:34:36;8.50;99.90
52669;DHT22;59898;52.786;6.892;2023-02-03T04:37:57;8.60;99.90
52669;DHT22;59898;52.786;6.892;2023-02-03T04:41:18;8.60;99.90
52669;DHT22;59898;52.786;6.892;2023-02-03T04:44:38;8.60;99.90
52669;DHT22;59898;52.786;6.892;2023-02-03T04:47:59;8.60;99.90
52669;DHT22;59898;52.786;6.892;2023-02-03T04:51:20;8.50;99.90
52669;DHT22;59898;52.786;6.892;2023-02-03T04:54:41;8.60;99.90
52669;DHT22;59898;52.786;6.892;2023-02-03T04:58:01;8.50;99.90
52669;DHT22;59898;52.786;6.892;2023-02-03T05:01:22;8.50;99.90
52669;DHT22;59898;52.786;6.892;2023-02-03T05:04:43;8.60;99.90
52669;DHT22;59898;52.786;6.892;2023-02-03T05:08:03;8.50;99.90
52669;DHT22;59898;52.786;6.892;2023-02-03T05:11:24;8.50;99.90
52669;DHT22;59898;52.786;6.892;2023-02-03T05:14:45;8.60;99.90
52669;DHT22;59898;52.786;6.892;2023-02-03T05:18:06;8.50;99.90
52669;DHT22;59898;52.786;6.892;2023-02-03T05:21:26;8.50;99.90
52669;DHT22;59898;52.786;6.892;2023-02-03T05:24:47;8.50;99.90
52669;DHT22;59898;52.786;6.892;2023-02-03T05:28:08;8.50;99.90
52669;DHT22;59898;52.786;6.892;2023-02-03T05:31:28;8.50;99.90
52669;DHT22;59898;52.786;6.892;2023-02-03T05:34:49;8.50;99.90
52669;DHT22;59898;52.786;6.892;2023-02-03T05:38:10;8.50;99.90
52669;DHT22;59898;52.786;6.892;2023-02-03T05:41:30;8.50;99.90
52669;DHT22;59898;52.786;6.892;2023-02-03T05:45:10;8.50;99.90
52669;DHT22;59898;52.786;6.892;2023-02-03T05:48:31;8.50;99.90
52669;DHT22;59898;52.786;6.892;2023-02-03T05:51:53;8.50;99.90
52669;DHT22;59898;52.786;6.892;2023-02-03T05:55:14;8.50;99.90
52669;DHT22;59898;52.786;6.892;2023-02-03T05:58:35;8.50;99.90
52669;DHT22;59898;52.786;6.892;2023-02-03T06:01:55;8.50;99.90
52669;DHT22;59898;52.786;6.892;2023-02-03T06:05:16;8.50;99.90
52669;DHT22;59898;52.786;6.892;2023-02-03T06:08:37;8.40;99.90
52669;DHT22;59898;52.786;6.892;2023-02-03T06:11:57;8.50;99.90
52669;DHT22;59898;52.786;6.892;2023-02-03T06:15:18;8.50;99.90
52669;DHT22;59898;52.786;6.892;2023-02-03T06:18:39;8.50;99.90
52669;DHT22;59898;52.786;6.892;2023-02-03T06:22:00;8.40;99.90
52669;DHT22;59898;52.786;6.892;2023-02-03T06:25:20;8.50;99.90
52669;DHT22;59898;52.786;6.892;2023-02-03T06:28:41;8.50;99.90
52669;DHT22;59898;52.786;6.892;2023-02-03T06:32:02;8.50;99.90
52669;DHT22;59898;52.786;6.892;2023-02-03T06:35:23;8.50;99.90
52669;DHT22;59898;52.786;6.892;2023-02-03T06:38:43;8.50;99.90
52669;DHT22;59898;52.786;6.892;2023-02-03T06:42:04;8.60;99.90
52669;DHT22;59898;52.786;6.892;2023-02-03T06:45:25;8.60;99.90
52669;DHT22;59898;52.786;6.892;2023-02-03T06:48:45;8.60;99.90
52669;DHT22;59898;52.786;6.892;2023-02-03T06:52:06;8.60;99.90
52669;DHT22;59898;52.786;6.892;2023-02-03T06:55:27;8.70;99.90
52669;DHT22;59898;52.786;6.892;2023-02-03T06:58:47;8.70;99.90
52669;DHT22;59898;52.786;6.892;2023-02-03T07:02:10;8.80;99.90
52669;DHT22;59898;52.786;6.892;2023-02-03T07:05:31;8.80;99.90
52669;DHT22;59898;52.786;6.892;2023-02-03T07:08:52;8.80;99.90
52669;DHT22;59898;52.786;6.892;2023-02-03T07:12:12;8.90;99.90
52669;DHT22;59898;52.786;6.892;2023-02-03T07:15:33;8.90;99.90
52669;DHT22;59898;52.786;6.892;2023-02-03T07:18:54;8.90;99.90
52669;DHT22;59898;52.786;6.892;2023-02-03T07:22:15;8.90;99.90
52669;DHT22;59898;52.786;6.892;2023-02-03T07:25:36;8.90;99.90
52669;DHT22;59898;52.786;6.892;2023-02-03T07:28:57;9.00;99.90
52669;DHT22;59898;52.786;6.892;2023-02-03T07:32:20;8.90;99.90
52669;DHT22;59898;52.786;6.892;2023-02-03T07:35:40;9.00;99.90
52669;DHT22;59898;52.786;6.892;2023-02-03T07:39:01;9.00;99.90
52669;DHT22;59898;52.786;6.892;2023-02-03T07:42:22;8.90;99.90
52669;DHT22;59898;52.786;6.892;2023-02-03T07:45:43;8.90;99.90
52669;DHT22;59898;52.786;6.892;2023-02-03T07:49:04;8.90;99.90
52669;DHT22;59898;52.786;6.892;2023-02-03T07:52:25;8.90;99.90
52669;DHT22;59898;52.786;6.892;2023-02-03T07:55:46;8.90;99.90
52669;DHT22;59898;52.786;6.892;2023-02-03T07:59:06;8.80;99.90
52669;DHT22;59898;52.786;6.892;2023-02-03T08:02:27;8.80;99.90
52669;DHT22;59898;52.786;6.892;2023-02-03T08:05:48;8.90;99.90
52669;DHT22;59898;52.786;6.892;2023-02-03T08:09:09;8.80;99.90
52669;DHT22;59898;52.786;6.892;2023-02-03T08:12:30;8.80;99.90
52669;DHT22;59898;52.786;6.892;2023-02-03T08:15:50;8.80;99.90
52669;DHT22;59898;52.786;6.892;2023-02-03T08:19:11;8.80;99.90
52669;DHT22;59898;52.786;6.892;2023-02-03T08:22:32;8.80;99.90
52669;DHT22;59898;52.786;6.892;2023-02-03T08:25:53;8.80;99.90
52669;DHT22;59898;52.786;6.892;2023-02-03T08:29:13;8.70;99.90
52669;DHT22;59898;52.786;6.892;2023-02-03T08:32:34;8.70;99.90
52669;DHT22;59898;52.786;6.892;2023-02-03T08:35:55;8.70;99.90
52669;DHT22;59898;52.786;6.892;2023-02-03T08:39:16;8.70;99.90
52669;DHT22;59898;52.786;6.892;2023-02-03T08:42:37;8.70;99.90
52669;DHT22;59898;52.786;6.892;2023-02-03T08:46:02;8.70;99.90
52669;DHT22;59898;52.786;6.892;2023-02-03T08:49:25;8.80;99.90
52669;DHT22;59898;52.786;6.892;2023-02-03T08:52:46;8.80;99.90
52669;DHT22;59898;52.786;6.892;2023-02-03T08:56:12;8.80;99.90
52669;DHT22;59898;52.786;6.892;2023-02-03T08:59:34;8.80;99.90
52669;DHT22;59898;52.786;6.892;2023-02-03T09:02:56;8.80;99.90
52669;DHT22;59898;52.786;6.892;2023-02-03T09:06:17;8.80;99.90
52669;DHT22;59898;52.786;6.892;2023-02-03T09:09:38;8.90;99.90
52669;DHT22;59898;52.786;6.892;2023-02-03T09:12:59;8.90;99.90
52669;DHT22;59898;52.786;6.892;2023-02-03T09:16:19;8.90;99.90
52669;DHT22;59898;52.786;6.892;2023-02-03T09:19:43;8.90;99.90
52669;DHT22;59898;52.786;6.892;2023-02-03T09:23:04;8.90;99.90
52669;DHT22;59898;52.786;6.892;2023-02-03T09:26:25;8.90;99.90
52669;DHT22;59898;52.786;6.892;2023-02-03T09:29:45;8.90;99.90
52669;DHT22;59898;52.786;6.892;2023-02-03T09:33:06;9.00;99.90
52669;DHT22;59898;52.786;6.892;2023-02-03T09:36:27;8.90;99.90
52669;DHT22;59898;52.786;6.892;2023-02-03T09:39:47;9.00;99.90
52669;DHT22;59898;52.786;6.892;2023-02-03T09:43:31;9.00;99.90
52669;DHT22;59898;52.786;6.892;2023-02-03T09:46:59;9.00;99.90
52669;DHT22;59898;52.786;6.892;2023-02-03T09:50:24;9.10;99.90
52669;DHT22;59898;52.786;6.892;2023-02-03T09:54:00;9.10;99.90
52669;DHT22;59898;52.786;6.892;2023-02-03T09:57:26;9.10;99.90
52669;DHT22;59898;52.786;6.892;2023-02-03T10:00:53;9.20;99.90
52669;DHT22;59898;52.786;6.892;2023-02-03T10:04:37;9.20;99.90
52669;DHT22;59898;52.786;6.892;2023-02-03T10:11:45;9.30;99.90
52669;DHT22;59898;52.786;6.892;2023-02-03T10:18:46;9.30;99.90
52669;DHT22;59898;52.786;6.892;2023-02-03T10:22:12;9.30;99.90
52669;DHT22;59898;52.786;6.892;2023-02-03T10:25:41;9.30;99.90
52669;DHT22;59898;52.786;6.892;2023-02-03T10:29:33;9.40;99.90
52669;DHT22;59898;52.786;6.892;2023-02-03T10:32:59;9.40;99.90
52669;DHT22;59898;52.786;6.892;2023-02-03T10:36:22;9.40;99.90
52669;DHT22;59898;52.786;6.892;2023-02-03T10:39:49;9.40;99.90
52669;DHT22;59898;52.786;6.892;2023-02-03T10:43:10;9.40;99.90
52669;DHT22;59898;52.786;6.892;2023-02-03T10:46:49;9.40;99.90
52669;DHT22;59898;52.786;6.892;2023-02-03T10:50:17;9.50;99.90
52669;DHT22;59898;52.786;6.892;2023-02-03T10:53:38;9.50;99.90
52669;DHT22;59898;52.786;6.892;2023-02-03T10:57:04;9.60;99.90
52669;DHT22;59898;52.786;6.892;2023-02-03T11:00:31;9.60;99.90
52669;DHT22;59898;52.786;6.892;2023-02-03T11:04:02;9.70;99.90
52669;DHT22;59898;52.786;6.892;2023-02-03T11:07:25;9.70;99.90
52669;DHT22;59898;52.786;6.892;2023-02-03T11:10:46;9.70;99.90
52669;DHT22;59898;52.786;6.892;2023-02-03T11:17:28;9.70;99.90
52669;DHT22;59898;52.786;6.892;2023-02-03T11:20:50;9.70;99.90
52669;DHT22;59898;52.786;6.892;2023-02-03T11:24:23;9.70;99.90
52669;DHT22;59898;52.786;6.892;2023-02-03T11:27:44;9.80;99.90
52669;DHT22;59898;52.786;6.892;2023-02-03T11:31:04;9.70;99.90
52669;DHT22;59898;52.786;6.892;2023-02-03T11:34:34;9.70;99.90
52669;DHT22;59898;52.786;6.892;2023-02-03T11:37:59;9.80;99.90
52669;DHT22;59898;52.786;6.892;2023-02-03T11:41:20;9.70;99.90
52669;DHT22;59898;52.786;6.892;2023-02-03T11:44:41;9.70;99.90
52669;DHT22;59898;52.786;6.892;2023-02-03T11:51:48;9.60;99.90
52669;DHT22;59898;52.786;6.892;2023-02-03T12:10:01;9.70;99.90
52669;DHT22;59898;52.786;6.892;2023-02-03T12:21:42;9.70;99.90
52669;DHT22;59898;52.786;6.892;2023-02-03T12:32:46;9.70;99.90
52669;DHT22;59898;52.786;6.892;2023-02-03T12:36:10;9.70;99.90
52669;DHT22;59898;52.786;6.892;2023-02-03T12:43:19;9.70;99.90
52669;DHT22;59898;52.786;6.892;2023-02-03T12:46:50;9.70;99.90
52669;DHT22;59898;52.786;6.892;2023-02-03T12:53:46;9.70;99.90
52669;DHT22;59898;52.786;6.892;2023-02-03T12:57:36;9.60;99.90
52669;DHT22;59898;52.786;6.892;2023-02-03T13:01:10;9.60;99.90
52669;DHT22;59898;52.786;6.892;2023-02-03T13:04:54;9.60;99.90
52669;DHT22;59898;52.786;6.892;2023-02-03T13:12:16;9.40;99.90
52669;DHT22;59898;52.786;6.892;2023-02-03T13:15:43;9.40;99.90
52669;DHT22;59898;52.786;6.892;2023-02-03T13:19:10;9.40;99.90
52669;DHT22;59898;52.786;6.892;2023-02-03T13:22:34;9.30;99.90
52669;DHT22;59898;52.786;6.892;2023-02-03T13:33:15;9.30;99.90
52669;DHT22;59898;52.786;6.892;2023-02-03T13:44:28;9.20;99.90
52669;DHT22;59898;52.786;6.892;2023-02-03T13:47:51;9.20;99.90
52669;DHT22;59898;52.786;6.892;2023-02-03T13:51:16;9.20;99.90
52669;DHT22;59898;52.786;6.892;2023-02-03T13:54:42;9.20;99.90
52669;DHT22;59898;52.786;6.892;2023-02-03T13:58:04;9.20;99.90
52669;DHT22;59898;52.786;6.892;2023-02-03T14:04:49;9.20;99.90
52669;DHT22;59898;52.786;6.892;2023-02-03T14:11:50;9.20;99.90
52669;DHT22;59898;52.786;6.892;2023-02-03T14:18:51;9.10;99.90
52669;DHT22;59898;52.786;6.892;2023-02-03T14:22:17;9.10;99.90
52669;DHT22;59898;52.786;6.892;2023-02-03T14:26:02;9.10;99.90
52669;DHT22;59898;52.786;6.892;2023-02-03T14:29:29;9.10;99.90
52669;DHT22;59898;52.786;6.892;2023-02-03T14:32:54;9.10;99.90
52669;DHT22;59898;52.786;6.892;2023-02-03T14:43:58;9.10;99.90
52669;DHT22;59898;52.786;6.892;2023-02-03T14:58:14;9.00;99.90
52669;DHT22;59898;52.786;6.892;2023-02-03T15:08:44;8.90;99.90
52669;DHT22;59898;52.786;6.892;2023-02-03T15:12:34;8.90;99.90
52669;DHT22;59898;52.786;6.892;2023-02-03T15:16:02;8.80;99.90
52669;DHT22;59898;52.786;6.892;2023-02-03T15:19:37;8.80;99.90
52669;DHT22;59898;52.786;6.892;2023-02-03T15:22:58;8.90;99.90
52669;DHT22;59898;52.786;6.892;2023-02-03T15:29:41;8.80;99.90
52669;DHT22;59898;52.786;6.892;2023-02-03T15:33:08;8.80;99.90
52669;DHT22;59898;52.786;6.892;2023-02-03T15:36:46;8.80;99.90
52669;DHT22;59898;52.786;6.892;2023-02-03T15:40:16;8.80;99.90
52669;DHT22;59898;52.786;6.892;2023-02-03T15:43:41;8.70;99.90
52669;DHT22;59898;52.786;6.892;2023-02-03T15:47:05;8.70;99.90
52669;DHT22;59898;52.786;6.892;2023-02-03T15:50:31;8.70;99.90
52669;DHT22;59898;52.786;6.892;2023-02-03T15:54:02;8.70;99.90
52669;DHT22;59898;52.786;6.892;2023-02-03T15:57:29;8.70;99.90
52669;DHT22;59898;52.786;6.892;2023-02-03T16:00:58;8.60;99.90
52669;DHT22;59898;52.786;6.892;2023-02-03T16:04:23;8.70;99.90
52669;DHT22;59898;52.786;6.892;2023-02-03T16:07:44;8.60;99.90
52669;DHT22;59898;52.786;6.892;2023-02-03T16:11:33;8.60;99.90
52669;DHT22;59898;52.786;6.892;2023-02-03T16:14:55;8.50;99.90
52669;DHT22;59898;52.786;6.892;2023-02-03T16:18:17;8.50;99.90
52669;DHT22;59898;52.786;6.892;2023-02-03T16:21:55;8.50;99.90
52669;DHT22;59898;52.786;6.892;2023-02-03T16:25:28;8.50;99.90
52669;DHT22;59898;52.786;6.892;2023-02-03T16:32:41;8.40;99.90
52669;DHT22;59898;52.786;6.892;2023-02-03T16:36:21;8.40;99.90
52669;DHT22;59898;52.786;6.892;2023-02-03T16:40:00;8.30;99.90
52669;DHT22;59898;52.786;6.892;2023-02-03T16:43:39;8.30;99.90
52669;DHT22;59898;52.786;6.892;2023-02-03T16:47:23;8.20;99.90
52669;DHT22;59898;52.786;6.892;2023-02-03T16:51:05;8.20;99.90
52669;DHT22;59898;52.786;6.892;2023-02-03T16:54:30;8.20;99.90
52669;DHT22;59898;52.786;6.892;2023-02-03T16:57:50;8.10;99.90
52669;DHT22;59898;52.786;6.892;2023-02-03T17:01:11;8.10;99.90
52669;DHT22;59898;52.786;6.892;2023-02-03T17:04:32;8.10;99.90
52669;DHT22;59898;52.786;6.892;2023-02-03T17:07:53;8.10;99.90
52669;DHT22;59898;52.786;6.892;2023-02-03T17:11:16;8.10;99.90
52669;DHT22;59898;52.786;6.892;2023-02-03T17:14:37;8.10;99.90
52669;DHT22;59898;52.786;6.892;2023-02-03T17:17:58;8.10;99.90
52669;DHT22;59898;52.786;6.892;2023-02-03T17:21:27;8.10;99.90
52669;DHT22;59898;52.786;6.892;2023-02-03T17:24:48;8.10;99.90
52669;DHT22;59898;52.786;6.892;2023-02-03T17:28:11;8.00;99.90
52669;DHT22;59898;52.786;6.892;2023-02-03T17:31:32;8.00;99.90
52669;DHT22;59898;52.786;6.892;2023-02-03T17:34:53;8.00;99.90
52669;DHT22;59898;52.786;6.892;2023-02-03T17:38:14;8.00;99.90
52669;DHT22;59898;52.786;6.892;2023-02-03T17:41:34;8.10;99.90
52669;DHT22;59898;52.786;6.892;2023-02-03T17:44:55;8.00;99.90
52669;DHT22;59898;52.786;6.892;2023-02-03T17:48:16;8.00;99.90
52669;DHT22;59898;52.786;6.892;2023-02-03T17:51:37;8.00;99.90
52669;DHT22;59898;52.786;6.892;2023-02-03T17:54:57;8.00;99.90
52669;DHT22;59898;52.786;6.892;2023-02-03T17:58:18;8.00;99.90
52669;DHT22;59898;52.786;6.892;2023-02-03T18:01:40;8.00;99.90
52669;DHT22;59898;52.786;6.892;2023-02-03T18:05:01;8.10;99.90
52669;DHT22;59898;52.786;6.892;2023-02-03T18:08:22;8.00;99.90
52669;DHT22;59898;52.786;6.892;2023-02-03T18:11:43;8.00;99.90
52669;DHT22;59898;52.786;6.892;2023-02-03T18:15:05;8.00;99.90
52669;DHT22;59898;52.786;6.892;2023-02-03T18:18:26;8.00;99.90
52669;DHT22;59898;52.786;6.892;2023-02-03T18:21:47;8.00;99.90
52669;DHT22;59898;52.786;6.892;2023-02-03T18:25:08;8.00;99.90
52669;DHT22;59898;52.786;6.892;2023-02-03T18:28:29;7.90;99.90
52669;DHT22;59898;52.786;6.892;2023-02-03T18:31:50;7.90;99.90
52669;DHT22;59898;52.786;6.892;2023-02-03T18:35:11;7.90;99.90
52669;DHT22;59898;52.786;6.892;2023-02-03T18:38:36;7.90;99.90
52669;DHT22;59898;52.786;6.892;2023-02-03T18:41:57;7.80;99.90
52669;DHT22;59898;52.786;6.892;2023-02-03T18:45:17;7.80;99.90
52669;DHT22;59898;52.786;6.892;2023-02-03T18:48:38;7.80;99.90
52669;DHT22;59898;52.786;6.892;2023-02-03T18:51:59;7.80;99.90
52669;DHT22;59898;52.786;6.892;2023-02-03T18:55:20;7.70;99.90
52669;DHT22;59898;52.786;6.892;2023-02-03T18:58:41;7.70;99.90
52669;DHT22;59898;52.786;6.892;2023-02-03T19:02:01;7.70;99.90
52669;DHT22;59898;52.786;6.892;2023-02-03T19:05:22;7.70;99.90
52669;DHT22;59898;52.786;6.892;2023-02-03T19:08:43;7.70;99.90
52669;DHT22;59898;52.786;6.892;2023-02-03T19:12:04;7.60;99.90
52669;DHT22;59898;52.786;6.892;2023-02-03T19:15:25;7.60;99.90
52669;DHT22;59898;52.786;6.892;2023-02-03T19:18:46;7.60;99.90
52669;DHT22;59898;52.786;6.892;2023-02-03T19:22:07;7.50;99.90
52669;DHT22;59898;52.786;6.892;2023-02-03T19:25:28;7.50;99.90
52669;DHT22;59898;52.786;6.892;2023-02-03T19:28:49;7.50;99.90
52669;DHT22;59898;52.786;6.892;2023-02-03T19:32:10;7.50;99.90
52669;DHT22;59898;52.786;6.892;2023-02-03T19:35:32;7.50;99.90
52669;DHT22;59898;52.786;6.892;2023-02-03T19:38:53;7.50;99.90
52669;DHT22;59898;52.786;6.892;2023-02-03T19:42:15;7.50;99.90
52669;DHT22;59898;52.786;6.892;2023-02-03T19:45:35;7.50;99.90
52669;DHT22;59898;52.786;6.892;2023-02-03T19:48:56;7.50;99.90
52669;DHT22;59898;52.786;6.892;2023-02-03T19:52:17;7.50;99.90
52669;DHT22;59898;52.786;6.892;2023-02-03T19:55:37;7.50;99.90
52669;DHT22;59898;52.786;6.892;2023-02-03T19:58:58;7.50;99.90
52669;DHT22;59898;52.786;6.892;2023-02-03T20:02:19;7.60;99.90
52669;DHT22;59898;52.786;6.892;2023-02-03T20:05:40;7.50;99.90
52669;DHT22;59898;52.786;6.892;2023-02-03T20:09:01;7.60;99.90
52669;DHT22;59898;52.786;6.892;2023-02-03T20:12:23;7.60;99.90
52669;DHT22;59898;52.786;6.892;2023-02-03T20:15:44;7.60;99.90
52669;DHT22;59898;52.786;6.892;2023-02-03T20:19:07;7.60;99.90
52669;DHT22;59898;52.786;6.892;2023-02-03T20:22:27;7.60;99.90
52669;DHT22;59898;52.786;6.892;2023-02-03T20:25:50;7.60;99.90
52669;DHT22;59898;52.786;6.892;2023-02-03T20:29:12;7.60;99.90
52669;DHT22;59898;52.786;6.892;2023-02-03T20:32:32;7.60;99.90
52669;DHT22;59898;52.786;6.892;2023-02-03T20:35:54;7.60;99.90
52669;DHT22;59898;52.786;6.892;2023-02-03T20:39:17;7.60;99.90
52669;DHT22;59898;52.786;6.892;2023-02-03T20:42:38;7.50;99.90
52669;DHT22;59898;52.786;6.892;2023-02-03T20:45:59;7.50;99.90
52669;DHT22;59898;52.786;6.892;2023-02-03T20:49:20;7.50;99.90
52669;DHT22;59898;52.786;6.892;2023-02-03T20:52:41;7.50;99.90
52669;DHT22;59898;52.786;6.892;2023-02-03T20:56:03;7.40;99.90
52669;DHT22;59898;52.786;6.892;2023-02-03T20:59:26;7.40;99.90
52669;DHT22;59898;52.786;6.892;2023-02-03T21:02:47;7.40;99.90
52669;DHT22;59898;52.786;6.892;2023-02-03T21:06:28;7.40;99.90
52669;DHT22;59898;52.786;6.892;2023-02-03T21:09:49;7.40;99.90
52669;DHT22;59898;52.786;6.892;2023-02-03T21:13:22;7.40;99.90
52669;DHT22;59898;52.786;6.892;2023-02-03T21:16:43;7.40;99.90
52669;DHT22;59898;52.786;6.892;2023-02-03T21:20:33;7.30;99.90
52669;DHT22;59898;52.786;6.892;2023-02-03T21:23:54;7.30;99.90
52669;DHT22;59898;52.786;6.892;2023-02-03T21:27:33;7.30;99.90
52669;DHT22;59898;52.786;6.892;2023-02-03T21:30:54;7.30;99.90
52669;DHT22;59898;52.786;6.892;2023-02-03T21:34:34;7.30;99.90
52669;DHT22;59898;52.786;6.892;2023-02-03T21:37:59;7.30;99.90
52669;DHT22;59898;52.786;6.892;2023-02-03T21:41:24;7.20;99.90
52669;DHT22;59898;52.786;6.892;2023-02-03T21:44:45;7.20;99.90
52669;DHT22;59898;52.786;6.892;2023-02-03T21:48:29;7.30;99.90
52669;DHT22;59898;52.786;6.892;2023-02-03T21:51:50;7.30;99.90
52669;DHT22;59898;52.786;6.892;2023-02-03T21:55:14;7.20;99.90
52669;DHT22;59898;52.786;6.892;2023-02-03T21:58:35;7.30;99.90
52669;DHT22;59898;52.786;6.892;2023-02-03T22:01:56;7.30;99.90
52669;DHT22;59898;52.786;6.892;2023-02-03T22:05:17;7.30;99.90
52669;DHT22;59898;52.786;6.892;2023-02-03T22:08:40;7.30;99.90
52669;DHT22;59898;52.786;6.892;2023-02-03T22:12:01;7.30;99.90
52669;DHT22;59898;52.786;6.892;2023-02-03T22:15:22;7.20;99.90
52669;DHT22;59898;52.786;6.892;2023-02-03T22:18:47;7.20;99.90
52669;DHT22;59898;52.786;6.892;2023-02-03T22:22:08;7.20;99.90
52669;DHT22;59898;52.786;6.892;2023-02-03T22:25:28;7.20;99.90
52669;DHT22;59898;52.786;6.892;2023-02-03T22:28:50;7.20;99.90
52669;DHT22;59898;52.786;6.892;2023-02-03T22:32:11;7.20;99.90
52669;DHT22;59898;52.786;6.892;2023-02-03T22:35:31;7.20;99.90
52669;DHT22;59898;52.786;6.892;2023-02-03T22:38:52;7.20;99.90
52669;DHT22;59898;52.786;6.892;2023-02-03T22:42:13;7.10;99.90
52669;DHT22;59898;52.786;6.892;2023-02-03T22:45:35;7.10;99.90
52669;DHT22;59898;52.786;6.892;2023-02-03T22:48:56;7.10;99.90
52669;DHT22;59898;52.786;6.892;2023-02-03T22:52:16;7.00;99.90
52669;DHT22;59898;52.786;6.892;2023-02-03T22:55:37;7.00;99.90
52669;DHT22;59898;52.786;6.892;2023-02-03T22:58:58;7.00;99.90
52669;DHT22;59898;52.786;6.892;2023-02-03T23:02:19;7.00;99.90
52669;DHT22;59898;52.786;6.892;2023-02-03T23:05:40;6.90;99.90
52669;DHT22;59898;52.786;6.892;2023-02-03T23:09:00;6.90;99.90
52669;DHT22;59898;52.786;6.892;2023-02-03T23:12:22;6.90;99.90
52669;DHT22;59898;52.786;6.892;2023-02-03T23:15:42;6.90;99.90
52669;DHT22;59898;52.786;6.892;2023-02-03T23:19:03;6.80;99.90
52669;DHT22;59898;52.786;6.892;2023-02-03T23:22:24;6.80;99.90
52669;DHT22;59898;52.786;6.892;2023-02-03T23:25:45;6.80;99.90
52669;DHT22;59898;52.786;6.892;2023-02-03T23:29:05;6.80;99.90
52669;DHT22;59898;52.786;6.892;2023-02-03T23:32:26;6.70;99.90
52669;DHT22;59898;52.786;6.892;2023-02-03T23:35:47;6.80;99.90
52669;DHT22;59898;52.786;6.892;2023-02-03T23:39:09;6.70;99.90
52669;DHT22;59898;52.786;6.892;2023-02-03T23:42:30;6.70;99.90
52669;DHT22;59898;52.786;6.892;2023-02-03T23:45:50;6.70;99.90
52669;DHT22;59898;52.786;6.892;2023-02-03T23:49:11;6.70;99.90
52669;DHT22;59898;52.786;6.892;2023-02-03T23:52:32;6.70;99.90
52669;DHT22;59898;52.786;6.892;2023-02-03T23:55:55;6.70;99.90
52669;DHT22;59898;52.786;6.892;2023-02-03T23:59:15;6.70;99.90
